createdAt,value
2023-03-27T00:01:39.568Z,99.90
2023-03-27T00:04:09.372Z,99.90
2023-03-27T00:06:37.537Z,99.90
2023-03-27T00:09:06.887Z,99.90
2023-03-27T00:11:34.718Z,99.90
2023-03-27T00:14:02.945Z,99.90
2023-03-27T00:16:48.465Z,99.90
2023-03-27T00:19:22.130Z,99.90
2023-03-27T00:21:49.431Z,99.90
2023-03-27T00:24:19.425Z,99.90
2023-03-27T00:26:47.233Z,99.90
2023-03-27T00:29:16.441Z,99.90
2023-03-27T00:31:43.593Z,99.90
2023-03-27T00:34:13.398Z,99.90
2023-03-27T00:36:43.010Z,99.90
2023-03-27T00:39:10.375Z,99.90
2023-03-27T00:41:40.225Z,99.90
2023-03-27T00:44:24.154Z,99.90
2023-03-27T00:46:53.705Z,99.90
2023-03-27T00:49:23.285Z,99.90
2023-03-27T00:51:54.894Z,99.90
2023-03-27T00:54:24.189Z,99.90
2023-03-27T00:56:52.469Z,99.90
2023-03-27T00:59:23.552Z,99.90
2023-03-27T01:01:52.793Z,99.90
2023-03-27T01:04:20.923Z,99.90
2023-03-27T01:06:49.454Z,99.90
2023-03-27T01:09:20.521Z,99.90
2023-03-27T01:12:02.864Z,99.90
2023-03-27T01:14:37.901Z,99.90
2023-03-27T01:17:22.398Z,99.90
2023-03-27T01:20:32.456Z,99.90
2023-03-27T01:23:59.975Z,99.90
2023-03-27T01:27:01.810Z,99.90
2023-03-27T01:29:45.302Z,99.90
2023-03-27T01:33:02.074Z,99.90
2023-03-27T01:35:51.220Z,99.90
2023-03-27T01:39:07.409Z,99.90
2023-03-27T01:41:46.743Z,99.90
2023-03-27T01:44:17.399Z,99.90
2023-03-27T01:46:51.690Z,99.90
2023-03-27T01:49:24.998Z,99.90
2023-03-27T01:51:57.771Z,99.90
2023-03-27T01:54:28.388Z,99.90
2023-03-27T01:57:04.582Z,99.90
2023-03-27T01:59:36.432Z,99.90
2023-03-27T02:02:08.888Z,99.90
2023-03-27T02:04:44.499Z,99.90
2023-03-27T02:07:19.167Z,99.90
2023-03-27T02:09:50.944Z,99.90
2023-03-27T02:12:23.775Z,99.90
2023-03-27T02:14:56.060Z,99.90
2023-03-27T02:17:25.480Z,99.90
2023-03-27T02:19:59.046Z,99.90
2023-03-27T02:22:38.358Z,99.90
2023-03-27T02:25:28.204Z,99.90
2023-03-27T02:28:23.055Z,99.90
2023-03-27T02:31:06.233Z,99.90
2023-03-27T02:34:07.671Z,99.90
2023-03-27T02:36:44.342Z,99.90
2023-03-27T02:39:19.509Z,99.90
2023-03-27T02:41:54.729Z,99.90
2023-03-27T02:44:32.015Z,99.90
2023-03-27T02:47:06.609Z,99.90
2023-03-27T02:49:41.248Z,99.90
2023-03-27T02:52:13.560Z,99.90
2023-03-27T02:54:45.380Z,99.90
2023-03-27T02:57:19.606Z,99.90
2023-03-27T02:59:53.820Z,99.90
2023-03-27T03:02:23.370Z,99.90
2023-03-27T03:04:56.613Z,99.90
2023-03-27T03:07:25.247Z,99.90
2023-03-27T03:09:53.541Z,99.90
2023-03-27T03:12:21.551Z,99.90
2023-03-27T03:14:52.071Z,99.90
2023-03-27T03:17:22.287Z,99.90
2023-03-27T03:19:50.194Z,99.90
2023-03-27T03:22:18.366Z,99.90
2023-03-27T03:24:49.279Z,99.90
2023-03-27T03:27:17.782Z,99.90
2023-03-27T03:29:45.784Z,99.90
2023-03-27T03:32:18.021Z,99.90
2023-03-27T03:34:45.904Z,99.90
2023-03-27T03:37:13.376Z,99.90
2023-03-27T03:39:41.389Z,99.90
2023-03-27T03:42:08.869Z,99.90
2023-03-27T03:44:37.511Z,99.90
2023-03-27T03:47:07.021Z,99.90
2023-03-27T03:49:36.152Z,99.90
2023-03-27T03:52:04.696Z,99.90
2023-03-27T03:54:32.302Z,99.90
2023-03-27T03:57:01.112Z,99.90
2023-03-27T03:59:28.334Z,99.90
2023-03-27T04:01:55.777Z,99.90
2023-03-27T04:04:23.501Z,99.90
2023-03-27T04:06:52.577Z,99.90
2023-03-27T04:09:20.540Z,99.90
2023-03-27T04:11:50.873Z,99.90
2023-03-27T04:14:19.604Z,99.90
2023-03-27T04:16:47.518Z,99.90
2023-03-27T04:19:15.501Z,99.90
2023-03-27T04:21:43.608Z,99.90
2023-03-27T04:24:15.823Z,99.90
2023-03-27T04:26:44.496Z,99.90
2023-03-27T04:29:16.622Z,99.90
2023-03-27T04:31:45.196Z,99.90
2023-03-27T04:34:12.640Z,99.90
2023-03-27T04:36:40.432Z,99.90
2023-03-27T04:39:07.714Z,99.90
2023-03-27T04:41:41.373Z,99.90
2023-03-27T04:44:09.228Z,99.90
2023-03-27T04:46:36.484Z,99.90
2023-03-27T04:49:03.927Z,99.90
2023-03-27T04:51:33.404Z,99.90
2023-03-27T04:54:02.660Z,99.90
2023-03-27T04:56:32.940Z,99.90
2023-03-27T04:59:02.389Z,99.90
2023-03-27T05:01:29.394Z,99.90
2023-03-27T05:03:59.438Z,99.90
2023-03-27T05:06:26.966Z,99.90
2023-03-27T05:09:03.709Z,99.90
2023-03-27T05:11:32.772Z,99.90
2023-03-27T05:14:04.944Z,99.90
2023-03-27T05:16:33.460Z,99.90
2023-03-27T05:19:01.488Z,99.90
2023-03-27T05:21:28.684Z,99.90
2023-03-27T05:23:55.872Z,99.90
2023-03-27T05:26:22.713Z,99.90
2023-03-27T05:28:49.653Z,99.90
2023-03-27T05:31:18.354Z,99.90
2023-03-27T05:33:45.414Z,99.90
2023-03-27T05:36:12.780Z,99.90
2023-03-27T05:38:40.352Z,99.90
2023-03-27T05:41:07.621Z,99.90
2023-03-27T05:43:34.604Z,99.90
2023-03-27T05:46:01.843Z,99.90
2023-03-27T05:48:31.005Z,99.90
2023-03-27T05:50:58.210Z,99.90
2023-03-27T05:53:28.180Z,99.90
2023-03-27T05:56:03.179Z,99.90
2023-03-27T05:58:30.755Z,99.90
2023-03-27T06:00:58.596Z,99.90
2023-03-27T06:03:26.154Z,99.90
2023-03-27T06:08:36.837Z,99.90
2023-03-27T06:11:08.612Z,99.90
2023-03-27T06:13:36.228Z,99.90
2023-03-27T06:16:04.209Z,99.90
2023-03-27T06:18:31.733Z,99.90
2023-03-27T06:21:01.129Z,99.90
2023-03-27T06:23:28.449Z,99.90
2023-03-27T06:25:56.053Z,99.90
2023-03-27T06:28:23.411Z,99.90
2023-03-27T06:30:51.293Z,99.90
2023-03-27T06:33:18.480Z,99.90
2023-03-27T06:35:52.872Z,99.90
2023-03-27T06:38:22.738Z,99.90
2023-03-27T06:40:49.835Z,99.90
2023-03-27T06:43:17.390Z,99.90
2023-03-27T06:45:46.632Z,99.90
2023-03-27T06:48:20.393Z,99.90
2023-03-27T06:50:50.849Z,99.90
2023-03-27T06:55:51.467Z,99.90
2023-03-27T07:01:00.493Z,99.90
2023-03-27T07:03:27.676Z,99.90
2023-03-27T07:05:57.913Z,99.90
2023-03-27T07:08:25.635Z,99.90
2023-03-27T07:11:10.813Z,99.90
2023-03-27T07:13:40.621Z,99.90
2023-03-27T07:16:09.232Z,99.90
2023-03-27T07:18:36.554Z,99.90
2023-03-27T07:21:03.711Z,99.90
2023-03-27T07:23:30.675Z,99.90
2023-03-27T07:26:00.298Z,99.90
2023-03-27T07:28:27.719Z,99.90
2023-03-27T07:30:55.674Z,99.90
2023-03-27T07:33:22.926Z,99.90
2023-03-27T07:35:50.945Z,99.90
2023-03-27T07:38:17.960Z,99.90
2023-03-27T07:40:45.466Z,99.90
2023-03-27T07:43:14.378Z,99.90
2023-03-27T07:45:42.604Z,99.90
2023-03-27T07:48:11.907Z,99.90
2023-03-27T07:50:39.140Z,99.90
2023-03-27T07:53:07.593Z,99.90
2023-03-27T07:55:34.457Z,99.90
2023-03-27T07:58:03.309Z,99.90
2023-03-27T08:00:32.143Z,99.90
2023-03-27T08:03:05.812Z,99.90
2023-03-27T08:05:32.696Z,99.90
2023-03-27T08:07:59.622Z,99.90
2023-03-27T08:10:26.677Z,99.90
2023-03-27T08:12:54.164Z,99.90
2023-03-27T08:15:21.581Z,99.90
2023-03-27T08:17:51.315Z,99.90
2023-03-27T08:20:18.420Z,99.90
2023-03-27T08:22:46.238Z,99.90
2023-03-27T08:25:14.401Z,99.90
2023-03-27T08:27:41.568Z,99.90
2023-03-27T08:30:10.309Z,99.90
2023-03-27T08:32:39.417Z,99.90
2023-03-27T08:35:08.610Z,99.90
2023-03-27T08:37:35.734Z,99.90
2023-03-27T08:40:03.596Z,99.90
2023-03-27T08:42:36.288Z,99.90
2023-03-27T08:45:13.454Z,99.90
2023-03-27T08:47:45.460Z,99.90
2023-03-27T08:50:31.972Z,99.90
2023-03-27T08:53:00.155Z,99.90
2023-03-27T08:55:37.009Z,99.90
2023-03-27T08:58:04.599Z,99.90
2023-03-27T09:00:38.330Z,99.90
2023-03-27T09:03:13.909Z,99.90
2023-03-27T09:05:46.757Z,99.90
2023-03-27T09:08:24.492Z,99.90
2023-03-27T09:10:58.580Z,99.90
2023-03-27T09:13:27.867Z,99.90
2023-03-27T09:16:00.560Z,99.90
2023-03-27T09:18:34.804Z,99.90
2023-03-27T09:21:05.783Z,99.90
2023-03-27T09:23:38.799Z,99.90
2023-03-27T09:26:10.866Z,99.90
2023-03-27T09:28:44.092Z,99.90
2023-03-27T09:31:23.981Z,99.90
2023-03-27T09:33:51.655Z,99.90
2023-03-27T09:36:21.179Z,99.90
2023-03-27T09:38:52.014Z,99.90
2023-03-27T09:41:24.235Z,99.90
2023-03-27T09:43:56.576Z,99.90
2023-03-27T09:46:26.514Z,99.90
2023-03-27T09:48:59.411Z,99.90
2023-03-27T09:51:42.733Z,99.90
2023-03-27T09:54:11.258Z,99.90
2023-03-27T09:56:40.114Z,99.90
2023-03-27T09:59:24.779Z,99.90
2023-03-27T10:01:55.570Z,99.90
2023-03-27T10:04:25.666Z,99.90
2023-03-27T10:07:01.198Z,99.90
2023-03-27T10:09:30.548Z,99.90
2023-03-27T10:12:03.246Z,99.90
2023-03-27T10:14:32.801Z,99.90
2023-03-27T10:16:59.846Z,99.90
2023-03-27T10:22:21.028Z,99.90
2023-03-27T10:24:48.812Z,99.90
2023-03-27T10:27:22.486Z,99.90
2023-03-27T10:29:49.918Z,99.90
2023-03-27T10:32:17.919Z,99.90
2023-03-27T10:34:54.913Z,99.90
2023-03-27T10:37:27.630Z,99.90
2023-03-27T10:39:57.363Z,99.90
2023-03-27T10:42:27.465Z,99.90
2023-03-27T10:44:55.714Z,99.90
2023-03-27T10:47:25.418Z,99.90
2023-03-27T10:50:00.957Z,99.90
2023-03-27T10:52:37.786Z,99.90
2023-03-27T10:55:30.845Z,99.90
2023-03-27T10:58:02.980Z,99.90
2023-03-27T11:00:35.544Z,99.90
2023-03-27T11:03:10.578Z,99.90
2023-03-27T11:05:40.669Z,99.90
2023-03-27T11:08:15.958Z,99.90
2023-03-27T11:10:44.852Z,99.90
2023-03-27T11:13:19.257Z,99.80
2023-03-27T11:15:50.823Z,98.90
2023-03-27T11:18:21.539Z,98.50
2023-03-27T11:20:51.820Z,98.20
2023-03-27T11:23:28.708Z,99.40
2023-03-27T11:25:59.038Z,97.30
2023-03-27T11:28:41.232Z,97.50
2023-03-27T11:31:15.514Z,98.10
2023-03-27T11:33:48.672Z,95.70
2023-03-27T11:36:27.485Z,93.30
2023-03-27T11:39:06.849Z,94.70
2023-03-27T11:41:34.115Z,95.20
2023-03-27T11:44:01.359Z,94.30
2023-03-27T11:46:55.808Z,94.20
2023-03-27T11:49:36.073Z,94.10
2023-03-27T11:52:16.156Z,94.20
2023-03-27T11:54:58.616Z,93.50
2023-03-27T11:57:26.580Z,94.30
2023-03-27T12:00:18.322Z,96.10
2023-03-27T12:03:18.451Z,96.50
2023-03-27T12:05:59.299Z,93.10
2023-03-27T12:08:38.652Z,93.10
2023-03-27T12:11:10.681Z,91.80
2023-03-27T12:14:17.723Z,92.50
2023-03-27T12:17:16.058Z,93.60
2023-03-27T12:20:16.659Z,94.90
2023-03-27T12:22:54.813Z,95.70
2023-03-27T12:25:46.340Z,93.30
2023-03-27T12:28:33.144Z,92.40
2023-03-27T12:31:12.728Z,89.60
2023-03-27T12:33:48.374Z,89.20
2023-03-27T12:36:19.555Z,86.50
2023-03-27T12:38:47.229Z,87.80
2023-03-27T12:41:22.234Z,88.90
2023-03-27T12:43:55.595Z,88.90
2023-03-27T12:46:37.671Z,84.50
2023-03-27T12:49:46.978Z,84.70
2023-03-27T12:52:16.140Z,81.40
2023-03-27T12:55:04.565Z,83.00
2023-03-27T12:57:32.203Z,83.50
2023-03-27T13:00:02.115Z,81.50
2023-03-27T13:03:03.639Z,82.70
2023-03-27T13:05:56.053Z,82.20
2023-03-27T13:08:45.073Z,83.30
2023-03-27T13:11:21.307Z,84.20
2023-03-27T13:14:14.259Z,85.00
2023-03-27T13:17:08.649Z,82.50
2023-03-27T13:19:50.301Z,84.50
2023-03-27T13:22:36.514Z,86.00
2023-03-27T13:25:28.704Z,85.00
2023-03-27T13:28:29.075Z,86.60
2023-03-27T13:30:57.334Z,85.50
2023-03-27T13:33:37.957Z,85.10
2023-03-27T13:36:11.836Z,85.70
2023-03-27T13:39:18.413Z,87.00
2023-03-27T13:42:09.380Z,82.50
2023-03-27T13:44:59.244Z,77.80
2023-03-27T13:48:02.511Z,76.30
2023-03-27T13:50:52.700Z,73.00
2023-03-27T13:53:45.013Z,71.60
2023-03-27T13:56:34.546Z,67.30
2023-03-27T13:59:41.116Z,65.10
2023-03-27T14:02:42.912Z,59.30
2023-03-27T14:05:24.061Z,57.20
2023-03-27T14:08:09.392Z,56.20
2023-03-27T14:11:09.018Z,57.50
2023-03-27T14:13:49.180Z,56.10
2023-03-27T14:16:44.932Z,53.10
2023-03-27T14:19:37.757Z,49.80
2023-03-27T14:22:10.329Z,48.50
2023-03-27T14:24:44.829Z,46.60
2023-03-27T14:27:16.295Z,48.60
2023-03-27T14:29:43.314Z,53.60
2023-03-27T14:32:15.436Z,55.40
2023-03-27T14:34:53.310Z,58.90
2023-03-27T14:37:26.478Z,66.50
2023-03-27T14:39:56.074Z,73.90
2023-03-27T14:42:31.986Z,81.60
2023-03-27T14:45:16.522Z,87.40
2023-03-27T14:47:52.219Z,92.70
2023-03-27T14:55:55.374Z,99.90
2023-03-27T14:58:24.019Z,99.90
2023-03-27T15:00:54.167Z,99.90
2023-03-27T15:03:24.587Z,99.90
2023-03-27T15:05:57.952Z,99.90
2023-03-27T15:08:26.008Z,98.20
2023-03-27T15:10:55.459Z,92.10
2023-03-27T15:13:25.033Z,91.50
2023-03-27T15:15:54.466Z,91.90
2023-03-27T21:18:04.555Z,99.90
2023-03-27T21:20:33.133Z,99.90
2023-03-27T21:23:01.373Z,99.90
2023-03-27T21:25:28.114Z,99.90
2023-03-27T21:27:54.980Z,99.90
2023-03-27T21:30:21.806Z,99.90
2023-03-27T21:32:48.609Z,99.90
2023-03-27T21:35:17.022Z,99.90
2023-03-27T21:37:44.270Z,99.90
2023-03-27T21:40:11.663Z,99.90
2023-03-27T21:42:38.471Z,99.90
2023-03-27T21:45:06.719Z,99.90
2023-03-27T21:47:46.646Z,99.90
2023-03-27T21:50:16.056Z,99.90
2023-03-27T21:52:42.937Z,99.90
2023-03-27T21:55:09.874Z,99.90
2023-03-27T21:57:36.676Z,99.90
2023-03-27T22:00:04.121Z,99.90
2023-03-27T22:02:30.865Z,99.90
2023-03-27T22:04:57.646Z,99.90
2023-03-27T22:07:25.829Z,99.90
2023-03-27T22:09:52.619Z,99.90
2023-03-27T22:12:19.498Z,99.90
2023-03-27T22:14:46.226Z,99.90
2023-03-27T22:17:13.093Z,99.90
2023-03-27T22:19:39.809Z,99.90
2023-03-27T22:22:06.565Z,99.90
2023-03-27T22:24:34.743Z,99.90
2023-03-27T22:27:01.481Z,99.90
2023-03-27T22:29:28.212Z,99.90
2023-03-27T22:31:54.933Z,99.90
2023-03-27T22:34:21.766Z,99.90
2023-03-27T22:36:48.617Z,99.90
2023-03-27T22:39:15.412Z,99.90
2023-03-27T22:41:43.658Z,99.90
2023-03-27T22:44:10.621Z,99.90
2023-03-27T22:46:37.574Z,99.90
2023-03-27T22:49:04.470Z,99.90
2023-03-27T22:51:31.417Z,99.90
2023-03-27T22:53:58.422Z,99.90
2023-03-27T22:56:25.401Z,99.90
2023-03-27T22:58:53.655Z,99.90
2023-03-27T23:01:20.505Z,99.90
2023-03-27T23:03:47.521Z,99.90
2023-03-27T23:06:18.297Z,99.90
2023-03-27T23:08:45.214Z,99.90
2023-03-27T23:11:13.050Z,99.90
2023-03-27T23:13:40.337Z,99.90
2023-03-27T23:16:09.688Z,99.90
2023-03-27T23:18:36.517Z,99.90
2023-03-27T23:21:05.368Z,99.90
2023-03-27T23:23:33.613Z,99.90
2023-03-27T23:26:00.670Z,99.90
2023-03-27T23:28:30.812Z,99.90
2023-03-27T23:30:59.261Z,99.90
2023-03-27T23:33:28.129Z,99.90
2023-03-27T23:36:01.776Z,99.90
2023-03-27T23:38:28.773Z,99.90
2023-03-27T23:40:55.975Z,99.90
2023-03-27T23:43:23.038Z,99.90
2023-03-27T23:45:49.922Z,99.90
2023-03-27T23:48:16.803Z,99.90
2023-03-27T23:50:45.344Z,99.90
2023-03-27T23:53:12.157Z,99.90
2023-03-27T23:55:39.109Z,99.90
2023-03-27T23:58:06.003Z,99.90
